createdAt,value
2022-12-04T00:01:14.835Z,14.30
2022-12-04T00:03:41.635Z,14.25
2022-12-04T00:06:10.770Z,14.52
2022-12-04T00:08:38.002Z,13.98
2022-12-04T00:11:06.336Z,14.75
2022-12-04T00:13:33.814Z,13.60
2022-12-04T00:16:00.747Z,13.00
2022-12-04T00:18:27.879Z,14.60
2022-12-04T00:20:54.505Z,15.32
2022-12-04T00:23:21.096Z,13.68
2022-12-04T00:25:48.794Z,15.52
2022-12-04T00:28:19.102Z,13.32
2022-12-04T00:30:45.986Z,14.60
2022-12-04T00:33:13.913Z,14.85
2022-12-04T00:35:40.788Z,12.35
2022-12-04T00:38:07.667Z,12.73
2022-12-04T00:40:34.356Z,10.98
2022-12-04T00:43:01.097Z,14.05
2022-12-04T00:45:27.862Z,13.38
2022-12-04T00:47:54.475Z,14.52
2022-12-04T00:50:21.050Z,13.10
2022-12-04T00:52:49.583Z,14.95
2022-12-04T00:55:16.129Z,14.25
2022-12-04T00:57:42.951Z,13.10
2022-12-04T01:00:09.887Z,14.75
2022-12-04T01:02:36.387Z,13.93
2022-12-04T01:05:03.508Z,13.05
2022-12-04T01:07:30.012Z,13.55
2022-12-04T01:09:57.303Z,15.00
2022-12-04T01:12:23.997Z,14.38
2022-12-04T01:14:50.441Z,14.18
2022-12-04T01:17:17.078Z,14.50
2022-12-04T01:19:43.552Z,14.52
2022-12-04T01:22:10.217Z,14.00
2022-12-04T01:24:36.755Z,12.40
2022-12-04T01:27:03.246Z,13.73
2022-12-04T01:29:29.766Z,14.20
2022-12-04T01:31:56.317Z,13.57
2022-12-04T01:34:25.243Z,14.45
2022-12-04T01:36:52.621Z,13.30
2022-12-04T01:39:19.386Z,14.98
2022-12-04T01:41:46.179Z,15.25
2022-12-04T01:44:19.202Z,13.95
2022-12-04T01:46:51.345Z,14.18
2022-12-04T01:49:21.729Z,14.23
2022-12-04T01:51:51.727Z,13.48
2022-12-04T01:54:29.466Z,14.43
2022-12-04T01:57:22.520Z,12.80
2022-12-04T02:00:00.328Z,13.00
2022-12-04T02:02:31.908Z,14.40
2022-12-04T02:04:59.896Z,13.90
2022-12-04T02:07:27.078Z,15.25
2022-12-04T02:09:56.274Z,15.07
2022-12-04T02:12:51.039Z,15.85
2022-12-04T02:15:30.053Z,13.10
2022-12-04T02:18:05.551Z,13.95
2022-12-04T02:20:38.037Z,13.52
2022-12-04T02:23:42.132Z,12.70
2022-12-04T02:26:27.469Z,11.82
2022-12-04T02:29:02.399Z,13.73
2022-12-04T02:31:35.621Z,14.85
2022-12-04T02:34:18.266Z,15.07
2022-12-04T02:36:54.734Z,14.93
2022-12-04T02:39:25.436Z,14.85
2022-12-04T02:42:19.487Z,12.40
2022-12-04T02:44:54.245Z,12.77
2022-12-04T02:47:23.985Z,15.30
2022-12-04T02:50:00.043Z,13.52
2022-12-04T02:52:34.773Z,15.05
2022-12-04T02:55:10.360Z,15.18
2022-12-04T02:57:42.864Z,13.70
2022-12-04T03:00:10.638Z,16.30
2022-12-04T03:02:54.316Z,15.63
2022-12-04T03:05:26.555Z,12.55
2022-12-04T03:07:58.034Z,14.43
2022-12-04T03:10:30.362Z,14.13
2022-12-04T03:13:03.622Z,14.07
2022-12-04T03:16:02.865Z,14.23
2022-12-04T03:18:36.268Z,12.43
2022-12-04T03:21:12.126Z,13.25
2022-12-04T03:24:03.309Z,13.70
2022-12-04T03:26:37.906Z,13.52
2022-12-04T03:29:15.785Z,12.10
2022-12-04T03:31:51.107Z,15.52
2022-12-04T03:34:42.032Z,12.43
2022-12-04T03:37:15.714Z,13.25
2022-12-04T03:39:59.534Z,14.07
2022-12-04T03:42:33.713Z,13.65
2022-12-04T03:45:15.461Z,12.13
2022-12-04T03:47:56.944Z,13.63
2022-12-04T03:50:32.434Z,12.02
2022-12-04T03:53:20.031Z,14.23
2022-12-04T03:56:00.612Z,15.02
2022-12-04T03:58:31.176Z,14.55
2022-12-04T04:01:00.553Z,13.70
2022-12-04T04:03:31.581Z,12.95
2022-12-04T04:06:06.943Z,12.43
2022-12-04T04:08:37.449Z,12.63
2022-12-04T04:11:28.986Z,14.60
2022-12-04T04:14:19.306Z,13.38
2022-12-04T04:17:09.956Z,13.10
2022-12-04T04:19:57.616Z,13.52
2022-12-04T04:22:44.647Z,12.68
2022-12-04T04:25:15.701Z,10.55
2022-12-04T04:30:09.584Z,12.20
2022-12-04T04:32:48.929Z,12.70
2022-12-04T04:35:27.684Z,12.55
2022-12-04T04:38:06.177Z,11.50
2022-12-04T04:40:50.280Z,13.88
2022-12-04T04:43:33.641Z,13.38
2022-12-04T04:46:18.304Z,13.60
2022-12-04T04:48:48.852Z,13.88
2022-12-04T04:51:15.673Z,14.18
2022-12-04T04:53:52.538Z,15.23
2022-12-04T04:56:20.755Z,11.70
2022-12-04T04:58:47.282Z,14.75
2022-12-04T05:01:17.228Z,13.98
2022-12-04T05:03:44.123Z,14.77
2022-12-04T05:06:10.625Z,13.32
2022-12-04T05:08:38.260Z,13.77
2022-12-04T05:11:05.416Z,15.05
2022-12-04T05:13:33.013Z,14.32
2022-12-04T05:16:08.329Z,14.35
2022-12-04T05:18:35.471Z,14.63
2022-12-04T05:21:09.303Z,13.73
2022-12-04T05:23:35.993Z,13.95
2022-12-04T05:26:05.128Z,13.52
2022-12-04T05:28:31.694Z,12.52
2022-12-04T05:31:00.747Z,14.20
2022-12-04T05:33:27.996Z,14.80
2022-12-04T05:36:01.639Z,13.00
2022-12-04T05:38:28.234Z,14.45
2022-12-04T05:40:54.722Z,14.88
2022-12-04T05:43:21.175Z,12.35
2022-12-04T05:45:47.662Z,15.10
2022-12-04T05:48:14.177Z,13.88
2022-12-04T05:50:40.733Z,13.40
2022-12-04T05:53:07.567Z,13.80
2022-12-04T05:55:34.031Z,14.93
2022-12-04T05:58:01.007Z,13.57
2022-12-04T06:00:27.591Z,13.57
2022-12-04T06:02:54.057Z,14.55
2022-12-04T06:05:20.559Z,14.85
2022-12-04T06:07:47.053Z,14.43
2022-12-04T06:10:13.598Z,12.88
2022-12-04T06:12:40.029Z,14.13
2022-12-04T06:15:06.895Z,12.90
2022-12-04T06:17:33.357Z,13.18
2022-12-04T06:20:00.335Z,12.98
2022-12-04T06:22:26.964Z,13.48
2022-12-04T06:24:53.718Z,14.48
2022-12-04T06:27:28.507Z,12.77
2022-12-04T06:29:55.610Z,13.68
2022-12-04T06:32:22.547Z,13.60
2022-12-04T06:34:53.664Z,13.18
2022-12-04T06:39:48.695Z,9.18
2022-12-04T06:42:16.071Z,11.10
2022-12-04T06:44:42.545Z,11.07
2022-12-04T06:47:09.229Z,11.65
2022-12-04T06:49:36.291Z,10.90
2022-12-04T06:52:02.844Z,10.93
2022-12-04T06:54:29.371Z,9.90
2022-12-04T06:56:55.838Z,10.20
2022-12-04T06:59:22.333Z,9.32
2022-12-04T07:01:50.085Z,9.95
2022-12-04T07:04:16.572Z,9.75
2022-12-04T07:06:43.045Z,9.63
2022-12-04T07:09:13.219Z,8.95
2022-12-04T07:11:40.604Z,8.23
2022-12-04T07:14:09.570Z,7.95
2022-12-04T07:16:40.689Z,8.80
2022-12-04T07:19:12.817Z,8.82
2022-12-04T07:21:40.094Z,7.65
2022-12-04T07:24:06.919Z,7.50
2022-12-04T07:26:33.409Z,7.10
2022-12-04T07:29:00.662Z,6.90
2022-12-04T07:31:29.028Z,7.38
2022-12-04T07:33:56.169Z,6.70
2022-12-04T07:36:23.784Z,7.32
2022-12-04T07:38:51.082Z,7.03
2022-12-04T07:41:19.030Z,6.00
2022-12-04T07:43:45.722Z,5.95
2022-12-04T07:46:20.785Z,8.38
2022-12-04T07:48:47.467Z,7.40
2022-12-04T07:51:17.318Z,7.72
2022-12-04T07:53:44.598Z,8.25
2022-12-04T07:56:12.444Z,7.63
2022-12-04T07:58:40.009Z,8.40
2022-12-04T08:01:13.115Z,7.30
2022-12-04T08:03:46.701Z,9.32
2022-12-04T08:06:14.923Z,8.40
2022-12-04T08:08:41.572Z,8.43
2022-12-04T08:11:10.698Z,7.10
2022-12-04T08:13:37.325Z,6.38
2022-12-04T08:16:07.912Z,8.40
2022-12-04T08:18:34.468Z,7.85
2022-12-04T08:21:12.276Z,8.32
2022-12-04T08:23:40.413Z,7.88
2022-12-04T08:26:07.828Z,9.05
2022-12-04T08:28:35.052Z,8.35
2022-12-04T08:31:12.942Z,8.20
2022-12-04T08:33:40.605Z,8.73
2022-12-04T08:36:08.807Z,9.70
2022-12-04T08:38:35.854Z,8.25
2022-12-04T08:41:04.704Z,10.40
2022-12-04T08:43:31.220Z,8.90
2022-12-04T08:45:59.688Z,9.23
2022-12-04T08:48:26.665Z,9.00
2022-12-04T08:50:53.950Z,9.30
2022-12-04T08:53:20.767Z,9.50
2022-12-04T08:55:47.363Z,9.02
2022-12-04T08:58:14.120Z,8.77
2022-12-04T09:00:40.816Z,9.02
2022-12-04T09:03:07.595Z,10.60
2022-12-04T09:05:34.142Z,9.60
2022-12-04T09:08:00.678Z,8.80
2022-12-04T09:10:27.222Z,9.15
2022-12-04T09:12:53.733Z,8.73
2022-12-04T09:15:20.210Z,9.45
2022-12-04T09:17:46.719Z,9.07
2022-12-04T09:20:15.057Z,9.43
2022-12-04T09:23:02.798Z,8.52
2022-12-04T09:25:28.150Z,8.57
2022-12-04T09:27:54.665Z,9.77
2022-12-04T09:30:21.193Z,9.77
2022-12-04T09:32:47.650Z,9.40
2022-12-04T09:35:14.153Z,10.32
2022-12-04T09:37:40.659Z,9.63
2022-12-04T09:40:08.075Z,9.40
2022-12-04T09:42:34.475Z,8.68
2022-12-04T09:45:17.368Z,8.00
2022-12-04T09:47:50.415Z,7.95
2022-12-04T09:50:23.147Z,9.23
2022-12-04T09:53:10.722Z,9.48
2022-12-04T09:55:46.241Z,9.85
2022-12-04T09:58:17.811Z,10.05
2022-12-04T10:00:48.469Z,8.02
2022-12-04T10:03:21.740Z,9.43
2022-12-04T10:06:06.397Z,9.32
2022-12-04T10:08:49.519Z,8.98
2022-12-04T10:11:32.805Z,9.85
2022-12-04T10:14:31.988Z,8.85
2022-12-04T10:17:07.451Z,8.23
2022-12-04T10:19:52.293Z,11.43
2022-12-04T10:22:27.763Z,11.55
2022-12-04T10:24:57.647Z,10.00
2022-12-04T10:27:44.372Z,10.98
2022-12-04T10:30:20.376Z,12.27
2022-12-04T10:32:48.161Z,11.20
2022-12-04T10:35:25.299Z,10.07
2022-12-04T10:38:05.092Z,10.52
2022-12-04T10:40:33.357Z,10.43
2022-12-04T10:43:14.935Z,9.57
2022-12-04T10:45:41.392Z,10.80
2022-12-04T10:48:19.937Z,10.10
2022-12-04T10:50:46.525Z,10.15
2022-12-04T10:53:16.253Z,8.70
2022-12-04T10:55:42.763Z,8.50
2022-12-04T10:58:20.409Z,8.25
2022-12-04T11:01:02.233Z,10.75
2022-12-04T11:03:29.667Z,10.65
2022-12-04T11:06:01.205Z,11.10
2022-12-04T11:08:38.778Z,8.63
2022-12-04T11:11:08.757Z,8.70
2022-12-04T11:13:35.240Z,8.45
2022-12-04T11:16:03.557Z,8.40
2022-12-04T11:18:46.032Z,9.70
2022-12-04T11:21:27.922Z,9.02
2022-12-04T11:23:54.664Z,8.05
2022-12-04T11:26:41.944Z,8.80
2022-12-04T11:29:15.260Z,10.18
2022-12-04T11:31:47.092Z,9.25
2022-12-04T11:34:22.868Z,9.70
2022-12-04T11:36:56.393Z,8.48
2022-12-04T11:39:32.919Z,8.85
2022-12-04T11:42:13.506Z,10.07
2022-12-04T11:44:48.986Z,8.75
2022-12-04T11:47:20.186Z,8.55
2022-12-04T11:50:03.570Z,8.40
2022-12-04T11:52:30.056Z,9.13
2022-12-04T11:55:28.337Z,10.18
2022-12-04T11:58:18.494Z,10.13
2022-12-04T12:01:09.882Z,11.50
2022-12-04T12:03:57.848Z,8.35
2022-12-04T12:06:34.771Z,10.35
2022-12-04T12:09:19.560Z,10.90
2022-12-04T12:11:57.319Z,10.60
2022-12-04T12:14:29.719Z,7.47
2022-12-04T12:17:23.883Z,10.15
2022-12-04T12:20:04.113Z,11.10
2022-12-04T12:22:43.841Z,12.05
2022-12-04T12:25:47.428Z,10.02
2022-12-04T12:28:17.211Z,9.65
2022-12-04T12:31:06.216Z,9.52
2022-12-04T12:33:46.764Z,9.75
2022-12-04T12:36:14.502Z,9.27
2022-12-04T12:38:46.216Z,10.60
2022-12-04T12:41:20.281Z,9.98
2022-12-04T12:44:17.616Z,11.60
2022-12-04T12:46:52.060Z,8.65
2022-12-04T12:49:25.351Z,9.02
2022-12-04T12:52:02.637Z,8.10
2022-12-04T12:54:49.103Z,13.30
2022-12-04T12:57:22.917Z,8.13
2022-12-04T12:59:56.023Z,12.20
2022-12-04T13:02:29.196Z,9.43
2022-12-04T13:05:01.350Z,10.38
2022-12-04T13:07:42.318Z,9.23
2022-12-04T13:10:26.895Z,8.20
2022-12-04T13:13:08.422Z,8.73
2022-12-04T13:15:42.107Z,7.93
2022-12-04T13:18:15.409Z,8.40
2022-12-04T13:20:55.612Z,10.18
2022-12-04T13:23:34.124Z,10.25
2022-12-04T13:26:06.640Z,10.65
2022-12-04T13:28:51.932Z,9.15
2022-12-04T13:31:33.973Z,9.57
2022-12-04T13:34:47.185Z,11.05
2022-12-04T13:37:42.699Z,11.07
2022-12-04T13:40:09.191Z,9.40
2022-12-04T13:42:35.968Z,9.52
2022-12-04T13:45:28.660Z,11.20
2022-12-04T13:48:00.526Z,9.52
2022-12-04T13:50:28.733Z,7.80
2022-12-04T13:52:55.537Z,8.13
2022-12-04T13:55:32.894Z,10.48
2022-12-04T14:00:34.967Z,11.32
2022-12-04T14:03:06.296Z,10.30
2022-12-04T14:05:41.528Z,11.93
2022-12-04T14:08:21.278Z,9.23
2022-12-04T14:11:09.241Z,7.85
2022-12-04T14:13:46.256Z,9.35
2022-12-04T14:16:22.666Z,10.07
2022-12-04T14:18:53.787Z,8.52
2022-12-04T14:23:47.090Z,8.40
2022-12-04T14:26:49.287Z,7.13
2022-12-04T14:29:29.905Z,8.95
2022-12-04T14:32:00.491Z,7.65
2022-12-04T14:34:31.781Z,8.70
2022-12-04T14:36:59.954Z,18.92
2022-12-04T14:39:44.095Z,11.88
2022-12-04T14:42:16.366Z,9.30
2022-12-04T14:44:46.102Z,12.00
2022-12-04T14:47:29.399Z,8.95
2022-12-04T14:50:14.757Z,11.70
2022-12-04T14:52:50.063Z,10.57
2022-12-04T14:55:41.026Z,12.00
2022-12-04T14:58:32.546Z,9.82
2022-12-04T15:01:02.037Z,8.25
2022-12-04T15:03:35.391Z,12.45
2022-12-04T15:06:07.895Z,8.23
2022-12-04T15:08:36.914Z,7.78
2022-12-04T15:11:25.048Z,12.98
2022-12-04T15:13:51.621Z,15.40
2022-12-04T15:16:21.493Z,9.82
2022-12-04T15:18:59.365Z,8.93
2022-12-04T15:21:38.844Z,11.98
2022-12-04T15:24:10.315Z,10.55
2022-12-04T15:26:39.077Z,13.80
2022-12-04T15:29:07.365Z,10.13
2022-12-04T15:31:40.547Z,6.45
2022-12-04T15:34:14.774Z,10.55
2022-12-04T15:37:00.706Z,8.55
2022-12-04T15:39:29.708Z,9.98
2022-12-04T15:42:27.293Z,8.25
2022-12-04T15:45:08.701Z,8.38
2022-12-04T15:47:51.845Z,9.32
2022-12-04T15:50:18.265Z,7.40
2022-12-04T15:53:02.828Z,8.48
2022-12-04T15:55:47.208Z,7.68
2022-12-04T15:58:35.611Z,6.47
2022-12-04T16:01:13.095Z,8.38
2022-12-04T16:03:47.973Z,6.65
2022-12-04T16:06:21.012Z,8.18
2022-12-04T16:08:50.726Z,8.00
2022-12-04T16:11:20.367Z,7.88
2022-12-04T16:13:49.512Z,6.45
2022-12-04T16:16:21.326Z,7.68
2022-12-04T16:18:48.019Z,12.63
2022-12-04T16:21:18.880Z,10.65
2022-12-04T16:23:45.720Z,9.35
2022-12-04T16:26:17.583Z,9.30
2022-12-04T16:28:44.414Z,9.40
2022-12-04T16:31:12.551Z,9.88
2022-12-04T16:33:39.926Z,13.38
2022-12-04T16:36:06.889Z,10.20
2022-12-04T16:38:33.365Z,9.45
2022-12-04T16:40:59.827Z,8.55
2022-12-04T16:43:26.344Z,11.95
2022-12-04T16:45:54.491Z,10.88
2022-12-04T16:48:21.482Z,12.55
2022-12-04T16:50:47.989Z,13.68
2022-12-04T16:53:22.009Z,11.05
2022-12-04T16:55:50.908Z,12.93
2022-12-04T16:58:18.425Z,11.90
2022-12-04T17:00:51.116Z,12.65
2022-12-04T17:03:23.518Z,13.27
2022-12-04T17:05:50.167Z,14.88
2022-12-04T17:08:16.803Z,12.55
2022-12-04T17:10:43.324Z,11.70
2022-12-04T17:13:09.817Z,12.63
2022-12-04T17:15:36.357Z,17.05
2022-12-04T17:18:07.397Z,13.65
2022-12-04T17:20:41.213Z,12.70
2022-12-04T17:23:08.709Z,13.48
2022-12-04T17:25:35.185Z,13.13
2022-12-04T17:28:02.219Z,10.38
2022-12-04T17:30:34.335Z,12.90
2022-12-04T17:33:02.380Z,10.00
2022-12-04T17:35:28.915Z,12.55
2022-12-04T17:37:57.434Z,11.57
2022-12-04T17:40:27.245Z,14.02
2022-12-04T17:42:53.704Z,12.20
2022-12-04T17:45:20.293Z,13.48
2022-12-04T17:47:46.803Z,11.40
2022-12-04T17:50:13.280Z,12.85
2022-12-04T17:52:39.843Z,12.40
2022-12-04T17:55:08.866Z,10.73
2022-12-04T17:57:35.508Z,13.88
2022-12-04T18:00:02.035Z,11.15
2022-12-04T18:02:28.633Z,12.07
2022-12-04T18:04:55.896Z,11.23
2022-12-04T18:07:22.654Z,13.73
2022-12-04T18:09:49.185Z,12.73
2022-12-04T18:12:15.732Z,12.52
2022-12-04T18:14:42.413Z,14.80
2022-12-04T18:17:08.947Z,14.20
2022-12-04T18:19:35.610Z,12.40
2022-12-04T18:22:02.071Z,12.77
2022-12-04T18:24:28.612Z,13.38
2022-12-04T18:26:55.135Z,14.75
2022-12-04T18:29:24.999Z,15.15
2022-12-04T18:31:52.405Z,13.02
2022-12-04T18:34:19.809Z,13.35
2022-12-04T18:36:46.782Z,11.50
2022-12-04T18:39:22.183Z,11.68
2022-12-04T18:41:49.100Z,11.30
2022-12-04T18:44:16.551Z,12.30
2022-12-04T18:46:43.362Z,11.90
2022-12-04T18:49:11.044Z,14.43
2022-12-04T18:51:46.980Z,12.18
2022-12-04T18:54:23.386Z,12.27
2022-12-04T18:56:50.037Z,11.98
2022-12-04T18:59:24.887Z,13.18
2022-12-04T19:01:52.287Z,12.95
2022-12-04T19:04:20.288Z,11.73
2022-12-04T19:06:48.819Z,11.32
2022-12-04T19:09:18.438Z,11.20
2022-12-04T19:11:46.067Z,12.45
2022-12-04T19:14:22.407Z,11.80
2022-12-04T19:16:49.950Z,11.95
2022-12-04T19:19:16.915Z,13.05
2022-12-04T19:21:43.524Z,10.73
2022-12-04T19:24:12.078Z,9.48
2022-12-04T19:26:38.943Z,10.15
2022-12-04T19:29:06.919Z,9.32
2022-12-04T19:31:36.638Z,12.20
2022-12-04T19:34:04.589Z,12.35
2022-12-04T19:36:32.164Z,9.48
2022-12-04T19:38:59.735Z,13.02
2022-12-04T19:41:30.932Z,14.10
2022-12-04T19:43:59.699Z,12.20
2022-12-04T19:46:29.050Z,11.93
2022-12-04T19:48:58.739Z,11.52
2022-12-04T19:51:25.556Z,12.23
2022-12-04T19:53:54.686Z,11.85
2022-12-04T19:56:24.731Z,11.27
2022-12-04T19:58:52.469Z,13.23
2022-12-04T20:01:24.867Z,10.73
2022-12-04T20:03:51.368Z,14.23
2022-12-04T20:06:20.398Z,12.63
2022-12-04T20:08:48.212Z,12.07
2022-12-04T20:11:17.596Z,12.82
2022-12-04T20:13:48.507Z,14.63
2022-12-04T20:16:18.349Z,11.32
2022-12-04T20:18:45.755Z,11.50
2022-12-04T20:21:13.472Z,13.25
2022-12-04T20:23:49.783Z,11.25
2022-12-04T20:26:23.404Z,12.85
2022-12-04T20:28:50.661Z,12.27
2022-12-04T20:31:26.035Z,12.65
2022-12-04T20:33:54.434Z,13.40
2022-12-04T20:36:23.290Z,13.27
2022-12-04T20:38:52.117Z,11.38
2022-12-04T20:41:18.796Z,12.73
2022-12-04T20:43:47.048Z,12.18
2022-12-04T20:46:25.364Z,13.68
2022-12-04T20:48:53.625Z,12.63
2022-12-04T20:51:25.903Z,11.48
2022-12-04T20:53:55.555Z,12.13
2022-12-04T20:56:23.279Z,14.20
2022-12-04T20:58:49.799Z,9.90
2022-12-04T21:01:18.719Z,11.48
2022-12-04T21:03:46.919Z,10.52
2022-12-04T21:06:17.739Z,15.55
2022-12-04T21:08:53.097Z,15.07
2022-12-04T21:11:24.954Z,14.38
2022-12-04T21:14:11.180Z,11.00
2022-12-04T21:16:37.810Z,11.02
2022-12-04T21:19:07.220Z,12.38
2022-12-04T21:21:35.865Z,11.95
2022-12-04T21:24:03.415Z,14.45
2022-12-04T21:26:31.285Z,14.82
2022-12-04T21:28:58.645Z,14.80
2022-12-04T21:31:28.096Z,13.63
2022-12-04T21:33:55.806Z,15.85
2022-12-04T21:36:22.397Z,13.43
2022-12-04T21:38:49.320Z,14.15
2022-12-04T21:41:34.617Z,12.77
2022-12-04T21:44:03.921Z,13.90
2022-12-04T21:46:31.945Z,16.38
2022-12-04T21:48:58.794Z,14.50
2022-12-04T21:51:55.182Z,14.80
2022-12-04T21:54:12.644Z,19.92
2022-12-04T21:56:39.297Z,16.23
2022-12-04T21:59:06.109Z,17.50
2022-12-04T22:01:32.830Z,16.05
2022-12-04T22:03:59.411Z,18.00
2022-12-04T22:06:26.812Z,18.52
2022-12-04T22:08:54.228Z,16.50
2022-12-04T22:11:21.647Z,18.55
2022-12-04T22:13:48.165Z,17.48
2022-12-04T22:16:17.090Z,17.67
2022-12-04T22:18:43.972Z,15.93
2022-12-04T22:21:13.157Z,13.07
2022-12-04T22:23:40.611Z,17.80
2022-12-04T22:26:10.110Z,16.83
2022-12-04T22:28:36.826Z,18.25
2022-12-04T22:31:05.281Z,18.98
2022-12-04T22:33:32.167Z,18.65
2022-12-04T22:36:10.659Z,17.77
2022-12-04T22:38:52.604Z,18.58
2022-12-04T22:41:25.857Z,14.18
2022-12-04T22:43:52.391Z,18.23
2022-12-04T22:46:19.360Z,15.10
2022-12-04T22:48:46.640Z,17.55
2022-12-04T22:51:14.988Z,17.98
2022-12-04T22:53:47.997Z,16.67
2022-12-04T22:56:31.559Z,12.45
2022-12-04T22:58:59.148Z,17.13
2022-12-04T23:01:28.113Z,16.60
2022-12-04T23:03:55.184Z,16.20
2022-12-04T23:06:24.416Z,17.25
2022-12-04T23:08:55.153Z,14.02
2022-12-04T23:11:23.072Z,13.52
2022-12-04T23:13:52.002Z,18.02
2022-12-04T23:16:20.509Z,15.82
2022-12-04T23:18:47.689Z,13.45
2022-12-04T23:21:15.067Z,14.85
2022-12-04T23:23:43.276Z,13.40
2022-12-04T23:26:13.296Z,14.73
2022-12-04T23:28:40.382Z,14.85
2022-12-04T23:31:07.270Z,17.67
2022-12-04T23:33:34.271Z,15.73
2022-12-04T23:36:02.546Z,17.50
2022-12-04T23:38:30.224Z,16.65
2022-12-04T23:41:16.187Z,14.93
2022-12-04T23:43:43.739Z,19.27
2022-12-04T23:46:12.398Z,16.23
2022-12-04T23:48:40.187Z,13.60
2022-12-04T23:51:07.813Z,17.27
2022-12-04T23:53:34.387Z,14.07
2022-12-04T23:56:11.227Z,15.80
2022-12-04T23:58:38.500Z,15.35
